createdAt,value
2023-04-18T00:01:07.700Z,100712.56
2023-04-18T00:03:39.156Z,100708.28
2023-04-18T00:06:15.573Z,100710.84
2023-04-18T00:08:46.830Z,100711.72
2023-04-18T00:11:21.052Z,100709.13
2023-04-18T00:13:50.661Z,100707.38
2023-04-18T00:16:20.527Z,100701.31
2023-04-18T00:19:01.821Z,100697.88
2023-04-18T00:21:33.647Z,100711.69
2023-04-18T00:24:02.682Z,100707.38
2023-04-18T00:26:31.901Z,100707.38
2023-04-18T00:29:01.236Z,100696.16
2023-04-18T00:31:36.786Z,100705.66
2023-04-18T00:34:06.079Z,100702.22
2023-04-18T00:36:37.255Z,100701.34
2023-04-18T00:39:11.801Z,100703.94
2023-04-18T00:41:46.264Z,100704.78
2023-04-18T00:44:15.613Z,100703.06
2023-04-18T00:46:45.155Z,100683.19
2023-04-18T00:49:15.117Z,100700.47
2023-04-18T00:51:47.393Z,100692.69
2023-04-18T00:54:24.875Z,100705.66
2023-04-18T00:56:54.457Z,100708.25
2023-04-18T00:59:23.969Z,100710.81
2023-04-18T01:01:58.471Z,100708.25
2023-04-18T01:04:27.907Z,100704.78
2023-04-18T01:06:59.204Z,100705.66
2023-04-18T01:09:33.161Z,100682.31
2023-04-18T01:14:38.542Z,100699.63
2023-04-18T01:17:10.689Z,100692.69
2023-04-18T01:19:40.049Z,100689.25
2023-04-18T01:22:15.198Z,100697.88
2023-04-18T01:24:46.609Z,100699.63
2023-04-18T01:27:17.208Z,100694.44
2023-04-18T01:29:51.745Z,100693.56
2023-04-18T01:32:20.991Z,100683.19
2023-04-18T01:34:52.821Z,100692.69
2023-04-18T01:37:21.725Z,100687.53
2023-04-18T01:39:53.531Z,100681.50
2023-04-18T01:42:33.728Z,100690.97
2023-04-18T01:45:03.631Z,100691.81
2023-04-18T01:47:33.312Z,100678.84
2023-04-18T01:50:10.441Z,100686.66
2023-04-18T01:52:39.746Z,100688.38
2023-04-18T01:55:17.238Z,100690.13
2023-04-18T01:57:46.880Z,100689.25
2023-04-18T02:00:16.886Z,100680.63
2023-04-18T02:05:26.764Z,100686.69
2023-04-18T02:07:55.905Z,100684.09
2023-04-18T02:10:32.204Z,100690.13
2023-04-18T02:13:06.759Z,100690.13
2023-04-18T02:15:36.474Z,100688.41
2023-04-18T02:18:06.541Z,100684.06
2023-04-18T02:20:36.010Z,100687.56
2023-04-18T02:23:05.776Z,100680.63
2023-04-18T02:25:42.141Z,100684.97
2023-04-18T02:28:11.559Z,100682.34
2023-04-18T02:30:40.666Z,100686.66
2023-04-18T02:33:09.989Z,100671.97
2023-04-18T02:35:40.306Z,100683.22
2023-04-18T02:38:09.526Z,100671.13
2023-04-18T02:40:47.121Z,100678.91
2023-04-18T02:43:16.454Z,100675.47
2023-04-18T02:45:45.617Z,100678.03
2023-04-18T02:48:15.195Z,100656.44
2023-04-18T02:50:44.475Z,100674.56
2023-04-18T02:53:14.018Z,100661.63
2023-04-18T02:55:57.864Z,100669.41
2023-04-18T02:58:46.882Z,100676.31
2023-04-18T03:01:46.178Z,100680.63
2023-04-18T03:04:18.274Z,100682.34
2023-04-18T03:07:07.929Z,100686.69
2023-04-18T03:09:39.313Z,100682.34
2023-04-18T03:12:19.721Z,100679.75
2023-04-18T03:14:50.072Z,100677.16
2023-04-18T03:20:00.541Z,100677.16
2023-04-18T03:22:36.190Z,100683.19
2023-04-18T03:25:06.645Z,100665.97
2023-04-18T03:27:58.309Z,100676.31
2023-04-18T03:30:28.723Z,100676.31
2023-04-18T03:35:37.822Z,100681.50
2023-04-18T03:38:07.860Z,100673.72
2023-04-18T03:40:41.885Z,100686.66
2023-04-18T03:46:03.267Z,100687.53
2023-04-18T03:48:35.477Z,100684.09
2023-04-18T03:51:13.784Z,100686.66
2023-04-18T03:53:43.701Z,100679.75
2023-04-18T03:56:13.333Z,100686.66
2023-04-18T03:58:56.018Z,100671.94
2023-04-18T04:01:25.669Z,100672.81
2023-04-18T04:04:09.050Z,100674.50
2023-04-18T04:06:38.596Z,100677.09
2023-04-18T04:09:07.901Z,100683.97
2023-04-18T04:11:43.091Z,100690.81
2023-04-18T04:14:25.895Z,100688.16
2023-04-18T04:16:56.068Z,100679.47
2023-04-18T04:19:25.953Z,100686.34
2023-04-18T04:22:09.280Z,100685.53
2023-04-18T04:24:39.297Z,100683.81
2023-04-18T04:27:10.789Z,100684.66
2023-04-18T04:29:43.440Z,100681.22
2023-04-18T04:32:13.204Z,100684.66
2023-04-18T04:34:44.553Z,100688.09
2023-04-18T04:37:15.013Z,100687.22
2023-04-18T04:39:56.676Z,100685.50
2023-04-18T04:42:35.612Z,100680.31
2023-04-18T04:45:19.728Z,100678.53
2023-04-18T04:47:49.534Z,100685.41
2023-04-18T04:50:20.645Z,100692.22
2023-04-18T04:52:50.313Z,100688.66
2023-04-18T04:55:20.675Z,100680.84
2023-04-18T04:57:55.851Z,100691.97
2023-04-18T05:00:47.596Z,100686.75
2023-04-18T05:03:17.304Z,100692.72
2023-04-18T05:05:47.096Z,100692.69
2023-04-18T05:08:16.401Z,100699.63
2023-04-18T05:10:45.714Z,100700.50
2023-04-18T05:13:15.096Z,100658.22
2023-04-18T05:15:44.442Z,100698.72
2023-04-18T05:23:55.494Z,100688.50
2023-04-18T05:26:25.136Z,100691.03
2023-04-18T05:29:19.453Z,100700.38
2023-04-18T05:31:49.251Z,100701.19
2023-04-18T05:36:55.626Z,100706.41
2023-04-18T05:39:25.117Z,100688.19
2023-04-18T05:41:54.479Z,100698.41
2023-04-18T05:44:38.769Z,100708.09
2023-04-18T05:47:08.195Z,100698.59
2023-04-18T05:49:41.297Z,100705.56
2023-04-18T05:52:11.187Z,100701.97
2023-04-18T05:54:40.868Z,100706.09
2023-04-18T05:57:10.181Z,100703.19
2023-04-18T05:59:39.874Z,100693.34
2023-04-18T06:02:15.393Z,100700.81
2023-04-18T06:04:48.330Z,100705.84
2023-04-18T06:07:18.428Z,100696.09
2023-04-18T06:09:49.483Z,100695.00
2023-04-18T06:12:18.877Z,100698.31
2023-04-18T06:14:48.396Z,100695.75
2023-04-18T06:17:17.774Z,100692.22
2023-04-18T06:19:49.481Z,100693.84
2023-04-18T06:22:23.523Z,100700.84
2023-04-18T06:24:55.312Z,100707.44
2023-04-18T06:27:31.187Z,100704.00
2023-04-18T06:30:01.973Z,100704.59
2023-04-18T06:35:24.127Z,100704.13
2023-04-18T06:37:54.801Z,100700.38
2023-04-18T06:40:24.454Z,100695.47
2023-04-18T06:42:53.890Z,100691.81
2023-04-18T06:45:23.585Z,100692.59
2023-04-18T06:47:59.432Z,100696.00
2023-04-18T06:50:31.474Z,100695.53
2023-04-18T06:53:00.831Z,100685.50
2023-04-18T06:55:37.707Z,100687.00
2023-04-18T06:58:08.201Z,100681.53
2023-04-18T07:00:42.767Z,100691.41
2023-04-18T07:03:12.915Z,100675.34
2023-04-18T07:05:44.785Z,100694.25
2023-04-18T07:08:14.450Z,100681.22
2023-04-18T07:10:44.188Z,100685.41
2023-04-18T07:13:13.449Z,100685.41
2023-04-18T07:15:47.858Z,100684.56
2023-04-18T07:18:36.543Z,100694.13
2023-04-18T07:21:10.620Z,100687.34
2023-04-18T07:23:40.482Z,100683.69
2023-04-18T07:26:11.110Z,100681.75
2023-04-18T07:28:40.480Z,100679.06
2023-04-18T07:31:12.250Z,100681.59
2023-04-18T07:33:41.643Z,100682.00
2023-04-18T07:36:14.130Z,100680.38
2023-04-18T07:38:48.720Z,100687.47
2023-04-18T07:41:18.049Z,100676.22
2023-04-18T07:43:47.409Z,100684.94
2023-04-18T07:46:16.809Z,100648.00
2023-04-18T07:48:46.300Z,100686.78
2023-04-18T07:51:18.216Z,100696.19
2023-04-18T07:53:47.850Z,100687.31
2023-04-18T07:56:17.149Z,100680.28
2023-04-18T08:01:23.952Z,100682.25
2023-04-18T08:03:54.482Z,100679.09
2023-04-18T08:06:32.185Z,100680.34
2023-04-18T08:09:04.061Z,100668.91
2023-04-18T08:11:38.540Z,100673.94
2023-04-18T08:14:07.846Z,100671.91
2023-04-18T08:16:37.117Z,100674.38
2023-04-18T08:19:21.795Z,100688.88
2023-04-18T08:21:54.080Z,100673.69
2023-04-18T08:24:30.413Z,100674.69
2023-04-18T08:27:00.033Z,100682.69
2023-04-18T08:29:29.821Z,100673.13
2023-04-18T08:31:59.435Z,100670.97
2023-04-18T08:34:29.007Z,100665.72
2023-04-18T08:37:05.540Z,100666.41
2023-04-18T08:39:35.090Z,100659.84
2023-04-18T08:42:05.592Z,100656.63
2023-04-18T08:44:40.829Z,100665.91
2023-04-18T08:47:11.991Z,100668.81
2023-04-18T08:49:47.467Z,100644.97
2023-04-18T08:52:19.094Z,100651.25
2023-04-18T08:54:49.371Z,100663.75
2023-04-18T08:57:26.596Z,100660.25
2023-04-18T08:59:56.659Z,100666.09
2023-04-18T09:02:38.608Z,100654.81
2023-04-18T09:05:14.607Z,100658.50
2023-04-18T09:07:46.428Z,100654.81
2023-04-18T09:10:27.185Z,100650.06
2023-04-18T09:13:02.971Z,100631.59
2023-04-18T09:15:34.210Z,100644.44
2023-04-18T09:18:04.297Z,100653.38
2023-04-18T09:20:40.748Z,100639.38
2023-04-18T09:23:15.158Z,100647.47
2023-04-18T09:25:47.647Z,100649.97
2023-04-18T09:28:26.633Z,100644.81
2023-04-18T09:30:58.496Z,100642.97
2023-04-18T09:33:37.732Z,100652.41
2023-04-18T09:36:20.236Z,100650.22
2023-04-18T09:39:02.151Z,100652.66
2023-04-18T09:41:32.386Z,100646.69
2023-04-18T09:46:47.617Z,100633.38
2023-04-18T09:49:18.096Z,100647.28
2023-04-18T09:51:53.306Z,100643.00
2023-04-18T09:54:34.808Z,100645.34
2023-04-18T09:57:13.403Z,100642.50
2023-04-18T09:59:47.429Z,100650.75
2023-04-18T10:02:26.878Z,100652.56
2023-04-18T10:04:57.887Z,100656.47
2023-04-18T10:07:34.383Z,100637.94
2023-04-18T10:10:06.054Z,100659.63
2023-04-18T10:15:17.925Z,100658.94
2023-04-18T10:18:03.391Z,100656.59
2023-04-18T10:20:35.511Z,100643.25
2023-04-18T10:23:43.253Z,100662.34
2023-04-18T10:26:14.568Z,100653.28
2023-04-18T10:28:56.270Z,100668.63
2023-04-18T10:31:31.599Z,100648.50
2023-04-18T10:34:05.721Z,100665.59
2023-04-18T10:36:35.731Z,100668.09
2023-04-18T10:39:21.170Z,100671.63
2023-04-18T10:41:53.507Z,100668.97
2023-04-18T10:44:29.248Z,100616.13
2023-04-18T10:47:27.893Z,100666.91
2023-04-18T10:50:07.850Z,100670.66
2023-04-18T10:52:37.225Z,100671.50
2023-04-18T10:55:25.782Z,100666.84
2023-04-18T10:58:03.428Z,100675.56
2023-04-18T11:00:33.787Z,100668.63
2023-04-18T11:03:03.281Z,100646.47
2023-04-18T11:05:32.897Z,100664.09
2023-04-18T11:08:02.076Z,100655.00
2023-04-18T11:10:31.383Z,100654.03
2023-04-18T11:13:05.718Z,100661.56
2023-04-18T11:15:39.611Z,100664.91
2023-04-18T11:18:11.347Z,100665.59
2023-04-18T11:20:40.842Z,100635.72
2023-04-18T11:26:02.954Z,100642.47
2023-04-18T11:28:34.313Z,100669.31
2023-04-18T11:31:08.911Z,100640.63
2023-04-18T11:33:38.399Z,100613.34
2023-04-18T11:36:22.210Z,100629.97
2023-04-18T11:38:51.939Z,100642.88
2023-04-18T11:41:36.129Z,100632.00
2023-04-18T11:44:08.257Z,100639.03
2023-04-18T11:46:40.864Z,100644.88
2023-04-18T11:49:10.352Z,100607.34
2023-04-18T11:51:43.312Z,100621.28
2023-04-18T11:54:40.877Z,100624.09
2023-04-18T11:57:23.260Z,100640.44
2023-04-18T11:59:58.872Z,100642.97
2023-04-18T12:02:48.906Z,100598.06
2023-04-18T12:05:36.931Z,100629.97
2023-04-18T12:08:11.591Z,100625.19
2023-04-18T12:13:33.193Z,100622.69
2023-04-18T12:16:18.998Z,100626.22
2023-04-18T12:19:14.054Z,100587.28
2023-04-18T12:24:35.838Z,100608.06
2023-04-18T12:27:05.243Z,100633.25
2023-04-18T12:29:41.597Z,100598.66
2023-04-18T12:32:16.855Z,100607.31
2023-04-18T12:34:51.437Z,100624.44
2023-04-18T12:37:25.196Z,100603.94
2023-04-18T12:39:54.705Z,100614.31
2023-04-18T12:42:24.190Z,100582.31
2023-04-18T12:52:06.013Z,100584.91
2023-04-18T12:54:37.992Z,100626.06
2023-04-18T12:57:07.164Z,100597.94
2023-04-18T12:59:36.341Z,100599.00
2023-04-18T13:02:13.737Z,100605.81
2023-04-18T13:05:10.073Z,100598.59
2023-04-18T13:07:42.301Z,100622.53
2023-04-18T13:10:30.714Z,100601.03
2023-04-18T13:13:06.601Z,100605.56
2023-04-18T13:15:54.353Z,100603.69
2023-04-18T13:18:42.174Z,100604.94
2023-04-18T13:21:11.527Z,100590.19
2023-04-18T13:23:43.422Z,100604.38
2023-04-18T13:26:12.897Z,100606.00
2023-04-18T13:28:55.223Z,100602.50
2023-04-18T13:31:24.729Z,100599.75
2023-04-18T13:34:12.777Z,100579.94
2023-04-18T13:36:42.230Z,100599.75
2023-04-18T13:39:19.833Z,100594.22
2023-04-18T13:42:04.743Z,100585.72
2023-04-18T13:47:22.392Z,100601.50
2023-04-18T13:49:51.840Z,100597.03
2023-04-18T13:52:26.280Z,100584.78
2023-04-18T13:55:10.671Z,100584.22
2023-04-18T13:57:40.855Z,100582.56
2023-04-18T14:00:13.650Z,100604.41
2023-04-18T14:02:48.336Z,100576.75
2023-04-18T14:05:17.803Z,100597.66
2023-04-18T14:08:05.550Z,100616.22
2023-04-18T14:10:37.055Z,100571.34
2023-04-18T14:13:11.376Z,100591.34
2023-04-18T14:15:40.759Z,100567.91
2023-04-18T14:18:17.508Z,100608.91
2023-04-18T14:20:48.178Z,100603.88
2023-04-18T14:23:28.132Z,100585.88
2023-04-18T14:26:04.653Z,100585.03
2023-04-18T14:28:35.478Z,100586.81
2023-04-18T14:31:06.224Z,100600.75
2023-04-18T14:33:40.787Z,100602.63
2023-04-18T14:36:11.112Z,100594.91
2023-04-18T14:38:53.499Z,100584.66
2023-04-18T14:41:25.314Z,100607.13
2023-04-18T14:43:54.438Z,100605.34
2023-04-18T14:46:23.619Z,100602.84
2023-04-18T14:48:53.084Z,100605.47
2023-04-18T14:51:25.813Z,100604.63
2023-04-18T14:54:14.026Z,100604.50
2023-04-18T14:56:45.398Z,100614.91
2023-04-18T14:59:16.708Z,100581.06
2023-04-18T15:01:46.501Z,100623.66
2023-04-18T15:04:16.267Z,100608.97
2023-04-18T15:06:59.054Z,100608.06
2023-04-18T15:09:28.621Z,100617.63
2023-04-18T15:12:00.198Z,100615.03
2023-04-18T15:14:31.158Z,100616.81
2023-04-18T15:17:02.645Z,100611.63
2023-04-18T15:19:34.134Z,100608.09
2023-04-18T15:22:10.515Z,100622.09
2023-04-18T15:24:39.922Z,100621.22
2023-04-18T15:27:12.026Z,100617.66
2023-04-18T15:29:41.289Z,100623.75
2023-04-18T15:32:11.134Z,100620.31
2023-04-18T15:34:41.045Z,100629.81
2023-04-18T15:37:10.447Z,100621.16
2023-04-18T15:39:55.113Z,100641.97
2023-04-18T15:42:26.443Z,100617.69
2023-04-18T15:45:01.032Z,100620.38
2023-04-18T15:50:16.638Z,100629.16
2023-04-18T15:52:46.039Z,100620.53
2023-04-18T15:55:15.439Z,100630.94
2023-04-18T15:57:46.712Z,100623.97
2023-04-18T16:00:22.975Z,100632.69
2023-04-18T16:02:52.715Z,100625.81
2023-04-18T16:05:22.408Z,100634.53
2023-04-18T16:07:57.814Z,100614.63
2023-04-18T16:10:27.153Z,100621.59
2023-04-18T16:13:04.205Z,100621.66
2023-04-18T16:15:35.177Z,100643.34
2023-04-18T16:18:04.593Z,100634.72
2023-04-18T16:20:33.802Z,100636.50
2023-04-18T16:23:09.216Z,100622.75
2023-04-18T16:25:38.826Z,100621.88
2023-04-18T16:28:10.279Z,100622.81
2023-04-18T16:30:43.367Z,100639.28
2023-04-18T16:33:20.493Z,100605.63
2023-04-18T16:35:50.199Z,100643.69
2023-04-18T16:38:23.108Z,100648.06
2023-04-18T16:40:52.441Z,100616.03
2023-04-18T16:43:42.212Z,100592.84
2023-04-18T16:46:13.368Z,100633.34
2023-04-18T16:51:19.532Z,100662.81
2023-04-18T16:53:48.884Z,100646.44
2023-04-18T16:56:18.295Z,100634.38
2023-04-18T16:58:49.563Z,100651.56
2023-04-18T17:01:24.200Z,100652.44
2023-04-18T17:03:53.869Z,100657.63
2023-04-18T17:06:24.940Z,100635.22
2023-04-18T17:08:54.525Z,100649.94
2023-04-18T17:11:43.662Z,100649.06
2023-04-18T17:14:16.273Z,100636.06
2023-04-18T17:16:46.032Z,100643.00
2023-04-18T17:19:15.602Z,100659.44
2023-04-18T17:21:46.079Z,100658.63
2023-04-18T17:24:15.622Z,100668.13
2023-04-18T17:26:45.200Z,100645.69
2023-04-18T17:29:18.180Z,100661.22
2023-04-18T17:31:47.464Z,100665.53
2023-04-18T17:34:16.807Z,100668.97
2023-04-18T17:36:46.388Z,100668.09
2023-04-18T17:39:16.716Z,100664.66
2023-04-18T17:41:47.672Z,100650.84
2023-04-18T17:44:18.995Z,100663.78
2023-04-18T17:46:50.670Z,100662.97
2023-04-18T17:49:20.075Z,100649.13
2023-04-18T17:51:54.371Z,100663.81
2023-04-18T17:54:25.175Z,100674.22
2023-04-18T17:56:54.527Z,100670.75
2023-04-18T17:59:26.046Z,100689.84
2023-04-18T18:02:07.295Z,100674.25
2023-04-18T18:04:36.994Z,100677.72
2023-04-18T18:07:07.809Z,100672.53
2023-04-18T18:09:42.210Z,100660.44
2023-04-18T18:12:31.989Z,100673.44
2023-04-18T18:15:04.298Z,100674.31
2023-04-18T18:17:35.391Z,100675.16
2023-04-18T18:20:05.298Z,100652.69
2023-04-18T18:22:35.280Z,100671.78
2023-04-18T18:25:05.670Z,100665.72
2023-04-18T18:27:54.143Z,100681.28
2023-04-18T18:30:25.789Z,100673.50
2023-04-18T18:33:00.408Z,100679.59
2023-04-18T18:35:29.694Z,100671.84
2023-04-18T18:37:59.289Z,100686.53
2023-04-18T18:40:41.530Z,100683.09
2023-04-18T18:43:11.020Z,100680.53
2023-04-18T18:45:42.629Z,100676.22
2023-04-18T18:48:11.911Z,100677.94
2023-04-18T18:50:41.566Z,100682.25
2023-04-18T18:53:16.597Z,100676.25
2023-04-18T18:55:46.030Z,100675.38
2023-04-18T18:58:15.346Z,100682.28
2023-04-18T19:01:01.409Z,100678.84
2023-04-18T19:03:31.077Z,100677.13
2023-04-18T19:06:03.506Z,100661.59
2023-04-18T19:08:33.162Z,100685.78
2023-04-18T19:11:02.419Z,100682.34
2023-04-18T19:13:31.879Z,100680.59
2023-04-18T19:16:03.066Z,100671.13
2023-04-18T19:18:32.843Z,100660.75
2023-04-18T19:21:02.146Z,100672.84
2023-04-18T19:23:32.823Z,100672.84
2023-04-18T19:26:02.780Z,100637.47
2023-04-18T19:28:38.184Z,100678.91
2023-04-18T19:31:09.990Z,100672.88
2023-04-18T19:33:39.943Z,100672.00
2023-04-18T19:36:09.373Z,100671.16
2023-04-18T19:38:57.007Z,100672.00
2023-04-18T19:41:27.494Z,100676.31
2023-04-18T19:43:56.852Z,100668.53
2023-04-18T19:49:18.202Z,100654.72
2023-04-18T19:51:48.548Z,100672.00
2023-04-18T19:54:30.876Z,100663.38
2023-04-18T19:57:00.778Z,100678.06
2023-04-18T19:59:30.050Z,100673.72
2023-04-18T20:02:06.865Z,100681.50
2023-04-18T20:04:37.081Z,100670.25
2023-04-18T20:07:06.645Z,100680.63
2023-04-18T20:09:42.019Z,100678.91
2023-04-18T20:12:11.577Z,100678.91
2023-04-18T20:15:25.826Z,100695.28
2023-04-18T20:18:10.128Z,100685.78
2023-04-18T20:21:00.006Z,100680.59
2023-04-18T20:23:29.507Z,100687.50
2023-04-18T20:26:13.810Z,100683.16
2023-04-18T20:28:43.262Z,100681.44
2023-04-18T20:31:22.921Z,100701.28
2023-04-18T20:33:54.445Z,100693.50
2023-04-18T20:36:58.088Z,100685.75
2023-04-18T20:39:27.665Z,100678.84
2023-04-18T20:42:15.833Z,100686.66
2023-04-18T20:44:46.372Z,100688.34
2023-04-18T20:47:16.125Z,100695.22
2023-04-18T20:49:52.464Z,100696.09
2023-04-18T20:52:26.952Z,100696.09
2023-04-18T20:54:56.351Z,100683.13
2023-04-18T20:57:25.656Z,100696.94
2023-04-18T21:00:15.819Z,100690.88
2023-04-18T21:02:46.498Z,100689.19
2023-04-18T21:05:18.200Z,100697.81
2023-04-18T21:07:48.974Z,100691.78
2023-04-18T21:10:25.303Z,100706.41
2023-04-18T21:12:55.125Z,100702.13
2023-04-18T21:15:30.163Z,100698.63
2023-04-18T21:17:59.873Z,100699.50
2023-04-18T21:20:31.497Z,100708.13
2023-04-18T21:25:54.364Z,100715.84
2023-04-18T21:28:23.881Z,100720.16
2023-04-18T21:30:53.568Z,100708.06
2023-04-18T21:33:24.287Z,100710.66
2023-04-18T21:36:01.445Z,100708.91
2023-04-18T21:38:44.388Z,100706.31
2023-04-18T21:41:16.631Z,100711.47
2023-04-18T21:46:44.198Z,100725.28
2023-04-18T21:49:19.947Z,100716.66
2023-04-18T21:51:51.303Z,100719.22
2023-04-18T21:54:20.796Z,100718.38
2023-04-18T21:57:08.608Z,100718.38
2023-04-18T21:59:44.692Z,100710.56
2023-04-18T22:02:25.597Z,100720.91
2023-04-18T22:04:55.319Z,100730.41
2023-04-18T22:07:26.701Z,100720.91
2023-04-18T22:10:05.523Z,100727.78
2023-04-18T22:12:36.317Z,100720.03
2023-04-18T22:15:06.165Z,100719.13
2023-04-18T22:17:37.587Z,100728.59
2023-04-18T22:20:27.837Z,100726.00
2023-04-18T22:22:59.122Z,100729.44
2023-04-18T22:25:28.572Z,100735.44
2023-04-18T22:28:03.480Z,100725.09
2023-04-18T22:30:33.026Z,100726.81
2023-04-18T22:33:02.292Z,100729.38
2023-04-18T22:35:41.934Z,100733.69
2023-04-18T22:38:13.508Z,100735.38
2023-04-18T22:43:24.634Z,100726.75
2023-04-18T22:45:54.296Z,100725.88
2023-04-18T22:48:28.623Z,100725.88
2023-04-18T22:50:57.903Z,100712.03
2023-04-18T22:53:29.097Z,100719.84
2023-04-18T22:55:58.829Z,100717.25
2023-04-18T22:58:28.102Z,100700.81
2023-04-18T23:01:02.320Z,100712.03
2023-04-18T23:03:34.312Z,100700.78
2023-04-18T23:06:04.320Z,100709.41
2023-04-18T23:08:35.466Z,100711.06
2023-04-18T23:11:09.749Z,100711.97
2023-04-18T23:13:38.948Z,100704.19
2023-04-18T23:16:09.549Z,100722.28
2023-04-18T23:18:44.153Z,100717.09
2023-04-18T23:21:14.028Z,100702.41
2023-04-18T23:23:46.225Z,100717.91
2023-04-18T23:26:16.109Z,100718.75
2023-04-18T23:28:45.580Z,100710.97
2023-04-18T23:31:21.677Z,100709.28
2023-04-18T23:33:52.245Z,100713.59
2023-04-18T23:36:21.583Z,100714.47
2023-04-18T23:38:57.867Z,100684.19
2023-04-18T23:41:45.174Z,100710.16
2023-04-18T23:44:14.625Z,100699.84
2023-04-18T23:46:44.006Z,100708.41
2023-04-18T23:49:18.517Z,100706.69
2023-04-18T23:51:47.888Z,100698.91
2023-04-18T23:54:24.167Z,100714.44
2023-04-18T23:56:53.522Z,100701.50
2023-04-18T23:59:22.778Z,100716.19
